Terminal Aerodrome Forecast
Issued by NWS

Home | Current Version | Previous Version | Text Only | Print | Product List | Glossary On
Versions: 1 2 3 4 5 6 7 8 9 10 11 12 13 14 15 16 17 18
000
FTUS42 KMLB 231140
TAFSFB
TAF
KSFB 231140Z 2312/2412 13008KT 6SM -RA SCT020 BKN040
     FM231700 20008KT 5SM SHRA BKN025
      TEMPO 2318/2322 2SM +SHRA BKN012
     FM240000 34006KT P6SM VCSH BKN015
     FM240600 36005KT P6SM BKN008 OVC010=

USA.gov is the U.S. government's official web portal to all federal, state and local government web resources and services.